createdAt,value
2019-03-23T00:00:49.132Z,0
2019-03-23T00:01:49.140Z,0
2019-03-23T00:02:48.906Z,0
2019-03-23T00:03:49.114Z,0
2019-03-23T00:04:48.879Z,0
2019-03-23T00:05:48.902Z,0
2019-03-23T00:06:49.075Z,0
2019-03-23T00:07:49.103Z,0
2019-03-23T00:08:48.830Z,0
2019-03-23T00:09:49.051Z,0
2019-03-23T00:10:49.420Z,0
2019-03-23T00:11:48.547Z,0
2019-03-23T00:12:48.786Z,0
2019-03-23T00:13:48.818Z,0
2019-03-23T00:14:48.768Z,0
2019-03-23T00:15:48.999Z,0
2019-03-23T00:16:48.994Z,0
2019-03-23T00:17:49.054Z,0
2019-03-23T00:18:48.495Z,0
2019-03-23T00:19:49.267Z,0
2019-03-23T00:20:49.014Z,0
2019-03-23T00:21:48.968Z,0
2019-03-23T00:22:49.242Z,0
2019-03-23T00:23:48.727Z,0
2019-03-23T00:24:48.950Z,0
2019-03-23T00:25:48.712Z,0
2019-03-23T00:26:48.714Z,0
2019-03-23T00:27:48.710Z,0
2019-03-23T00:28:48.919Z,0
2019-03-23T00:29:48.416Z,0
2019-03-23T00:30:48.888Z,0
2019-03-23T00:31:49.143Z,0
2019-03-23T00:32:48.396Z,0
2019-03-23T00:33:48.867Z,0
2019-03-23T00:34:48.868Z,0
2019-03-23T00:35:48.877Z,0
2019-03-23T00:36:51.129Z,0
2019-03-23T00:37:48.857Z,0
2019-03-23T00:38:48.605Z,0
2019-03-23T00:39:48.819Z,0
2019-03-23T00:40:51.034Z,0
2019-03-23T00:41:48.590Z,0
2019-03-23T00:42:48.554Z,0
2019-03-23T00:43:48.801Z,0
2019-03-23T00:44:48.805Z,0
2019-03-23T00:45:48.802Z,0
2019-03-23T00:46:48.805Z,0
2019-03-23T00:47:49.020Z,0
2019-03-23T00:48:49.060Z,0
2019-03-23T00:49:48.770Z,0
2019-03-23T00:50:49.041Z,0
2019-03-23T00:51:48.999Z,0
2019-03-23T00:52:48.485Z,0
2019-03-23T00:53:48.733Z,0
2019-03-23T00:54:48.468Z,0
2019-03-23T00:55:48.447Z,0
2019-03-23T00:56:48.705Z,0
2019-03-23T00:57:48.712Z,0
2019-03-23T00:58:48.947Z,0
2019-03-23T00:59:48.950Z,0
2019-03-23T01:00:48.944Z,0
2019-03-23T01:01:48.202Z,0
2019-03-23T01:02:50.646Z,0
2019-03-23T01:03:48.922Z,0
2019-03-23T01:04:48.896Z,0
2019-03-23T01:05:48.889Z,0
2019-03-23T01:06:58.596Z,0
2019-03-23T01:07:48.384Z,0
2019-03-23T01:08:49.163Z,0
2019-03-23T01:09:48.639Z,0
2019-03-23T01:10:48.625Z,0
2019-03-23T01:11:48.830Z,0
2019-03-23T01:12:48.329Z,0
2019-03-23T01:13:48.336Z,0
2019-03-23T01:14:48.819Z,0
2019-03-23T01:15:50.334Z,0
2019-03-23T01:16:48.328Z,0
2019-03-23T01:17:48.550Z,0
2019-03-23T01:18:49.350Z,0
2019-03-23T01:19:48.783Z,0
2019-03-23T01:20:58.023Z,0
2019-03-23T01:21:48.342Z,0
2019-03-23T01:22:48.748Z,0
2019-03-23T01:23:48.518Z,0
2019-03-23T01:24:48.256Z,0
2019-03-23T01:25:48.268Z,0
2019-03-23T01:26:48.485Z,0
2019-03-23T01:27:48.482Z,0
2019-03-23T01:28:48.461Z,0
2019-03-23T01:29:48.480Z,0
2019-03-23T01:30:48.450Z,0
2019-03-23T01:31:48.196Z,0
2019-03-23T01:32:48.218Z,0
2019-03-23T01:33:47.923Z,0
2019-03-23T01:34:48.163Z,0
2019-03-23T01:35:48.399Z,0
2019-03-23T01:36:48.146Z,0
2019-03-23T01:37:48.403Z,0
2019-03-23T01:38:48.690Z,0
2019-03-23T01:39:48.525Z,0
2019-03-23T01:40:48.137Z,0
2019-03-23T01:41:48.109Z,0
2019-03-23T01:42:48.986Z,0
2019-03-23T01:43:48.600Z,0
2019-03-23T01:44:48.371Z,0
2019-03-23T01:45:48.342Z,0
2019-03-23T01:46:48.329Z,0
2019-03-23T01:47:48.323Z,0
2019-03-23T01:48:48.326Z,0
2019-03-23T01:49:47.807Z,0
2019-03-23T01:50:48.294Z,0
2019-03-23T01:51:48.052Z,0
2019-03-23T01:52:48.283Z,0
2019-03-23T01:53:47.798Z,0
2019-03-23T01:54:48.023Z,0
2019-03-23T01:55:48.530Z,0
2019-03-23T01:56:48.003Z,0
2019-03-23T01:57:47.515Z,0
2019-03-23T01:58:48.231Z,0
2019-03-23T01:59:48.013Z,0
2019-03-23T02:00:48.211Z,0
2019-03-23T02:01:48.210Z,0
2019-03-23T02:02:50.007Z,0
2019-03-23T02:03:47.937Z,0
2019-03-23T02:04:47.947Z,0
2019-03-23T02:05:47.737Z,0
2019-03-23T02:06:48.206Z,0
2019-03-23T02:07:47.659Z,0
2019-03-23T02:08:47.657Z,0
2019-03-23T02:09:47.906Z,0
2019-03-23T02:10:48.654Z,0
2019-03-23T02:11:47.906Z,0
2019-03-23T02:12:48.135Z,0
2019-03-23T02:13:47.655Z,0
2019-03-23T02:14:48.114Z,0
2019-03-23T02:15:48.100Z,0
2019-03-23T02:16:47.607Z,0
2019-03-23T02:17:48.385Z,0
2019-03-23T02:18:47.914Z,0
2019-03-23T02:19:50.165Z,0
2019-03-23T02:20:47.827Z,0
2019-03-23T02:21:48.066Z,0
2019-03-23T02:22:47.824Z,0
2019-03-23T02:23:47.810Z,0
2019-03-23T02:24:47.894Z,0
2019-03-23T02:25:47.807Z,0
2019-03-23T02:26:47.999Z,0
2019-03-23T02:27:48.295Z,0
2019-03-23T02:28:48.009Z,0
2019-03-23T02:29:48.040Z,0
2019-03-23T02:30:48.265Z,0
2019-03-23T02:31:48.228Z,0
2019-03-23T02:32:47.761Z,0
2019-03-23T02:33:48.227Z,0
2019-03-23T02:34:47.491Z,0
2019-03-23T02:35:48.318Z,0
2019-03-23T02:36:47.699Z,0
2019-03-23T02:37:47.700Z,0
2019-03-23T02:38:48.186Z,0
2019-03-23T02:39:48.249Z,0
2019-03-23T02:40:47.648Z,0
2019-03-23T02:41:48.174Z,0
2019-03-23T02:42:47.935Z,0
2019-03-23T02:43:47.881Z,0
2019-03-23T02:44:48.099Z,0
2019-03-23T02:45:47.908Z,0
2019-03-23T02:46:48.130Z,0
2019-03-23T02:47:47.613Z,0
2019-03-23T02:48:48.128Z,0
2019-03-23T02:49:48.127Z,0
2019-03-23T02:50:47.350Z,0
2019-03-23T02:51:49.149Z,0
2019-03-23T02:52:47.571Z,0
2019-03-23T02:53:47.823Z,0
2019-03-23T02:54:47.569Z,0
2019-03-23T02:55:47.528Z,0
2019-03-23T02:56:47.749Z,0
2019-03-23T02:57:48.069Z,0
2019-03-23T02:58:48.071Z,0
2019-03-23T02:59:48.025Z,0
2019-03-23T03:00:47.752Z,0
2019-03-23T03:01:48.022Z,0
2019-03-23T03:02:47.723Z,0
2019-03-23T03:03:47.432Z,0
2019-03-23T03:04:47.771Z,0
2019-03-23T03:05:47.686Z,0
2019-03-23T03:06:47.427Z,0
2019-03-23T03:07:52.209Z,0
2019-03-23T03:08:47.922Z,0
2019-03-23T03:09:47.427Z,0
2019-03-23T03:10:47.437Z,0
2019-03-23T03:11:47.385Z,0
2019-03-23T03:12:47.689Z,0
2019-03-23T03:13:47.133Z,0
2019-03-23T03:14:47.636Z,0
2019-03-23T03:15:47.691Z,0
2019-03-23T03:16:47.407Z,0
2019-03-23T03:17:47.858Z,0
2019-03-23T03:18:47.829Z,0
2019-03-23T03:19:48.115Z,0
2019-03-23T03:20:47.354Z,0
2019-03-23T03:21:47.812Z,0
2019-03-23T03:22:47.309Z,0
2019-03-23T03:23:47.775Z,0
2019-03-23T03:24:47.511Z,0
2019-03-23T03:25:47.500Z,0
2019-03-23T03:26:47.237Z,0
2019-03-23T03:27:47.249Z,0
2019-03-23T03:28:47.208Z,0
2019-03-23T03:29:46.967Z,0
2019-03-23T03:30:47.377Z,0
2019-03-23T03:31:47.572Z,0
2019-03-23T03:32:47.542Z,0
2019-03-23T03:33:47.471Z,0
2019-03-23T03:34:47.213Z,0
2019-03-23T03:35:47.440Z,0
2019-03-23T03:36:47.402Z,0
2019-03-23T03:38:01.072Z,0
2019-03-23T03:38:47.140Z,0
2019-03-23T03:39:47.376Z,0
2019-03-23T03:40:47.353Z,0
2019-03-23T03:41:47.621Z,0
2019-03-23T03:42:47.130Z,0
2019-03-23T03:43:47.612Z,0
2019-03-23T03:44:47.333Z,0
2019-03-23T03:45:47.604Z,0
2019-03-23T03:46:47.082Z,0
2019-03-23T03:47:50.040Z,0
2019-03-23T03:48:47.557Z,0
2019-03-23T03:49:47.309Z,0
2019-03-23T03:50:47.835Z,0
2019-03-23T03:51:47.520Z,0
2019-03-23T03:52:47.043Z,0
2019-03-23T03:53:47.353Z,0
2019-03-23T03:54:47.232Z,0
2019-03-23T03:55:47.254Z,0
2019-03-23T03:56:47.064Z,0
2019-03-23T03:57:47.489Z,0
2019-03-23T03:58:47.221Z,0
2019-03-23T03:59:47.461Z,0
2019-03-23T04:00:47.194Z,0
2019-03-23T04:01:47.189Z,0
2019-03-23T04:02:47.434Z,0
2019-03-23T04:03:46.921Z,0
2019-03-23T04:04:46.926Z,0
2019-03-23T04:05:47.139Z,0
2019-03-23T04:06:47.113Z,0
2019-03-23T04:07:47.172Z,0
2019-03-23T04:08:47.385Z,0
2019-03-23T04:09:49.909Z,0
2019-03-23T04:10:47.162Z,0
2019-03-23T04:11:47.082Z,0
2019-03-23T04:12:47.084Z,0
2019-03-23T04:13:46.816Z,0
2019-03-23T04:14:46.564Z,0
2019-03-23T04:15:46.831Z,0
2019-03-23T04:16:47.028Z,0
2019-03-23T04:17:46.964Z,0
2019-03-23T04:18:47.072Z,0
2019-03-23T04:19:46.755Z,0
2019-03-23T04:20:49.092Z,0
2019-03-23T04:21:47.280Z,0
2019-03-23T04:22:46.757Z,0
2019-03-23T04:23:47.200Z,0
2019-03-23T04:24:46.459Z,0
2019-03-23T04:25:46.708Z,0
2019-03-23T04:26:48.811Z,0
2019-03-23T04:27:46.463Z,0
2019-03-23T04:28:46.915Z,0
2019-03-23T04:29:46.934Z,0
2019-03-23T04:30:47.142Z,0
2019-03-23T04:31:47.133Z,0
2019-03-23T04:32:47.156Z,0
2019-03-23T04:33:46.622Z,0
2019-03-23T04:34:47.114Z,0
2019-03-23T04:35:46.619Z,0
2019-03-23T04:36:46.853Z,0
2019-03-23T04:37:46.859Z,0
2019-03-23T04:38:46.839Z,0
2019-03-23T04:39:46.854Z,0
2019-03-23T04:40:47.040Z,0
2019-03-23T04:41:46.552Z,0
2019-03-23T04:42:46.763Z,0
2019-03-23T04:43:46.503Z,0
2019-03-23T04:44:46.744Z,0
2019-03-23T04:45:46.739Z,0
2019-03-23T04:46:48.879Z,0
2019-03-23T04:47:46.918Z,0
2019-03-23T04:48:46.469Z,0
2019-03-23T04:49:46.693Z,0
2019-03-23T04:50:48.535Z,0
2019-03-23T04:51:46.171Z,0
2019-03-23T04:52:46.426Z,0
2019-03-23T04:53:46.408Z,0
2019-03-23T04:54:48.023Z,0
2019-03-23T04:55:46.647Z,0
2019-03-23T04:56:46.887Z,0
2019-03-23T04:57:46.885Z,0
2019-03-23T04:58:46.373Z,0
2019-03-23T04:59:46.366Z,0
2019-03-23T05:00:46.595Z,0
2019-03-23T05:01:46.093Z,0
2019-03-23T05:02:46.358Z,0
2019-03-23T05:03:46.080Z,0
2019-03-23T05:04:46.359Z,0
2019-03-23T05:05:46.535Z,0
2019-03-23T05:06:47.215Z,0
2019-03-23T05:07:46.529Z,0
2019-03-23T05:08:46.510Z,0
2019-03-23T05:09:46.512Z,0
2019-03-23T05:10:46.254Z,0
2019-03-23T05:11:46.253Z,0
2019-03-23T05:12:46.575Z,0
2019-03-23T05:13:46.746Z,0
2019-03-23T05:14:46.470Z,0
2019-03-23T05:15:46.445Z,5
2019-03-23T05:16:46.438Z,5
2019-03-23T05:17:45.976Z,5
2019-03-23T05:18:46.676Z,5
2019-03-23T05:19:46.273Z,5
2019-03-23T05:20:46.465Z,5
2019-03-23T05:21:45.668Z,5
2019-03-23T05:22:46.437Z,5
2019-03-23T05:23:48.299Z,10
2019-03-23T05:24:45.906Z,10
2019-03-23T05:25:46.609Z,10
2019-03-23T05:26:46.427Z,10
2019-03-23T05:27:46.392Z,15
2019-03-23T05:28:46.108Z,15
2019-03-23T05:29:46.083Z,15
2019-03-23T05:30:46.329Z,15
2019-03-23T05:31:46.315Z,20
2019-03-23T05:32:46.058Z,20
2019-03-23T05:33:46.067Z,20
2019-03-23T05:34:46.036Z,20
2019-03-23T05:35:46.067Z,25
2019-03-23T05:36:46.283Z,25
2019-03-23T05:37:46.291Z,25
2019-03-23T05:38:53.625Z,25
2019-03-23T05:39:46.005Z,30
2019-03-23T05:40:45.740Z,30
2019-03-23T05:41:46.463Z,30
2019-03-23T05:42:46.463Z,30
2019-03-23T05:43:46.237Z,35
2019-03-23T05:44:46.186Z,35
2019-03-23T05:45:45.923Z,40
2019-03-23T05:46:46.178Z,40
2019-03-23T05:47:45.909Z,45
2019-03-23T05:48:45.923Z,45
2019-03-23T05:49:45.675Z,45
2019-03-23T05:50:45.928Z,50
2019-03-23T05:51:47.090Z,50
2019-03-23T05:52:45.919Z,50
2019-03-23T05:53:46.368Z,55
2019-03-23T05:54:45.384Z,55
2019-03-23T05:55:46.092Z,55
2019-03-23T05:56:46.171Z,60
2019-03-23T05:57:45.854Z,60
2019-03-23T05:58:46.064Z,60
2019-03-23T05:59:46.042Z,65
2019-03-23T06:00:45.331Z,65
2019-03-23T06:01:46.067Z,65
2019-03-23T06:02:46.038Z,65
2019-03-23T06:03:46.017Z,65
2019-03-23T06:04:46.003Z,65
2019-03-23T06:05:45.780Z,70
2019-03-23T06:06:45.992Z,70
2019-03-23T06:07:46.497Z,75
2019-03-23T06:08:54.427Z,75
2019-03-23T06:09:45.973Z,75
2019-03-23T06:10:45.474Z,75
2019-03-23T06:11:45.187Z,80
2019-03-23T06:12:45.938Z,80
2019-03-23T06:13:45.671Z,80
2019-03-23T06:14:45.662Z,85
2019-03-23T06:15:45.897Z,85
2019-03-23T06:16:45.920Z,85
2019-03-23T06:17:45.657Z,85
2019-03-23T06:18:45.880Z,90
2019-03-23T06:19:45.860Z,90
2019-03-23T06:20:46.103Z,90
2019-03-23T06:21:47.778Z,90
2019-03-23T06:22:45.923Z,95
2019-03-23T06:23:45.824Z,95
2019-03-23T06:24:45.831Z,95
2019-03-23T06:25:45.845Z,100
2019-03-23T06:26:45.811Z,100
2019-03-23T06:27:45.797Z,100
2019-03-23T06:28:45.788Z,100
2019-03-23T06:29:45.828Z,100
2019-03-23T06:30:45.570Z,100
2019-03-23T06:31:45.995Z,105
2019-03-23T06:32:46.002Z,105
2019-03-23T06:33:45.975Z,105
2019-03-23T06:34:45.770Z,105
2019-03-23T06:35:45.767Z,105
2019-03-23T06:36:45.702Z,110
2019-03-23T06:37:45.727Z,110
2019-03-23T06:38:45.717Z,110
2019-03-23T06:39:45.193Z,110
2019-03-23T06:40:45.699Z,115
2019-03-23T06:41:45.894Z,115
2019-03-23T06:42:45.664Z,115
2019-03-23T06:43:46.000Z,115
2019-03-23T06:44:45.703Z,120
2019-03-23T06:45:45.633Z,120
2019-03-23T06:46:45.378Z,120
2019-03-23T06:47:45.128Z,125
2019-03-23T06:48:45.624Z,130
2019-03-23T06:49:45.854Z,130
2019-03-23T06:50:45.603Z,135
2019-03-23T06:51:45.607Z,140
2019-03-23T06:52:45.588Z,145
2019-03-23T06:53:45.300Z,150
2019-03-23T06:54:45.551Z,150
2019-03-23T06:55:45.048Z,150
2019-03-23T06:56:45.302Z,150
2019-03-23T06:57:45.587Z,155
2019-03-23T06:58:47.867Z,160
2019-03-23T06:59:45.293Z,160
2019-03-23T07:00:45.829Z,160
2019-03-23T07:01:45.480Z,165
2019-03-23T07:02:45.513Z,170
2019-03-23T07:03:45.220Z,175
2019-03-23T07:04:45.255Z,170
2019-03-23T07:05:45.485Z,170
2019-03-23T07:06:45.477Z,170
2019-03-23T07:07:45.721Z,180
2019-03-23T07:08:45.458Z,180
2019-03-23T07:09:45.424Z,180
2019-03-23T07:10:45.436Z,180
2019-03-23T07:11:45.441Z,185
2019-03-23T07:12:45.241Z,200
2019-03-23T07:13:45.402Z,205
2019-03-23T07:14:44.910Z,210
2019-03-23T07:15:45.664Z,215
2019-03-23T07:16:45.399Z,215
2019-03-23T07:17:45.425Z,220
2019-03-23T07:18:45.395Z,220
2019-03-23T07:19:45.391Z,225
2019-03-23T07:20:45.441Z,220
2019-03-23T07:21:44.872Z,225
2019-03-23T07:22:45.708Z,225
2019-03-23T07:23:45.107Z,225
2019-03-23T07:24:45.626Z,225
2019-03-23T07:25:45.634Z,225
2019-03-23T07:26:45.112Z,225
2019-03-23T07:27:45.374Z,230
2019-03-23T07:28:44.842Z,230
2019-03-23T07:29:44.602Z,230
2019-03-23T07:30:45.350Z,230
2019-03-23T07:31:45.601Z,235
2019-03-23T07:32:45.343Z,235
2019-03-23T07:33:45.612Z,235
2019-03-23T07:34:45.361Z,240
2019-03-23T07:35:45.577Z,240
2019-03-23T07:36:45.617Z,245
2019-03-23T07:37:45.631Z,245
2019-03-23T07:38:45.344Z,245
2019-03-23T07:39:45.364Z,250
2019-03-23T07:40:45.119Z,250
2019-03-23T07:41:45.610Z,250
2019-03-23T07:42:45.629Z,250
2019-03-23T07:43:45.354Z,250
2019-03-23T07:44:45.353Z,250
2019-03-23T07:45:45.660Z,250
2019-03-23T07:46:45.428Z,250
2019-03-23T07:47:45.333Z,250
2019-03-23T07:48:45.341Z,250
2019-03-23T07:49:45.345Z,250
2019-03-23T07:50:45.613Z,255
2019-03-23T07:51:45.344Z,255
2019-03-23T07:52:47.011Z,250
2019-03-23T07:53:45.591Z,255
2019-03-23T07:54:45.130Z,255
2019-03-23T07:55:45.102Z,255
2019-03-23T07:56:44.845Z,250
2019-03-23T07:57:45.233Z,250
2019-03-23T07:58:45.621Z,255
2019-03-23T07:59:45.468Z,250
2019-03-23T08:00:45.631Z,250
2019-03-23T08:01:45.104Z,235
2019-03-23T08:02:45.620Z,230
2019-03-23T08:03:45.637Z,230
2019-03-23T08:04:45.418Z,230
2019-03-23T08:05:44.874Z,230
2019-03-23T08:06:45.137Z,235
2019-03-23T08:07:45.354Z,240
2019-03-23T08:08:45.357Z,230
2019-03-23T08:09:47.048Z,240
2019-03-23T08:10:45.137Z,225
2019-03-23T08:11:45.637Z,235
2019-03-23T08:12:45.409Z,240
2019-03-23T08:13:44.870Z,235
2019-03-23T08:14:45.089Z,240
2019-03-23T08:15:45.636Z,245
2019-03-23T08:16:45.626Z,235
2019-03-23T08:17:45.640Z,245
2019-03-23T08:18:45.396Z,235
2019-03-23T08:19:45.655Z,235
2019-03-23T08:20:44.691Z,240
2019-03-23T08:21:45.666Z,240
2019-03-23T08:22:45.363Z,230
2019-03-23T08:23:45.116Z,240
2019-03-23T08:24:45.640Z,235
2019-03-23T08:25:44.639Z,235
2019-03-23T08:26:44.617Z,235
2019-03-23T08:27:46.516Z,235
2019-03-23T08:28:45.154Z,240
2019-03-23T08:29:45.372Z,245
2019-03-23T08:30:45.150Z,240
2019-03-23T08:31:45.614Z,235
2019-03-23T08:32:45.126Z,235
2019-03-23T08:33:45.376Z,230
2019-03-23T08:34:45.366Z,230
2019-03-23T08:35:45.115Z,230
2019-03-23T08:36:44.874Z,230
2019-03-23T08:37:45.470Z,230
2019-03-23T08:38:45.379Z,230
2019-03-23T08:39:55.317Z,230
2019-03-23T08:40:45.677Z,230
2019-03-23T08:41:45.167Z,235
2019-03-23T08:42:45.383Z,240
2019-03-23T08:43:45.165Z,235
2019-03-23T08:44:45.695Z,235
2019-03-23T08:45:44.887Z,235
2019-03-23T08:46:46.318Z,235
2019-03-23T08:47:45.642Z,235
2019-03-23T08:48:45.360Z,235
2019-03-23T08:49:44.875Z,240
2019-03-23T08:50:45.114Z,240
2019-03-23T08:51:45.163Z,240
2019-03-23T08:52:45.390Z,240
2019-03-23T08:53:45.942Z,240
2019-03-23T08:54:45.344Z,240
2019-03-23T08:55:45.157Z,240
2019-03-23T08:56:46.522Z,240
2019-03-23T08:57:46.668Z,240
2019-03-23T08:58:45.114Z,245
2019-03-23T08:59:45.128Z,245
2019-03-23T09:00:45.096Z,245
2019-03-23T09:01:45.102Z,245
2019-03-23T09:02:45.097Z,245
2019-03-23T09:03:56.789Z,245
2019-03-23T09:04:45.349Z,245
2019-03-23T09:05:44.598Z,245
2019-03-23T09:06:44.840Z,245
2019-03-23T09:07:45.086Z,245
2019-03-23T09:08:45.334Z,245
2019-03-23T09:09:45.340Z,245
2019-03-23T09:10:45.057Z,245
2019-03-23T09:11:45.330Z,245
2019-03-23T09:12:45.568Z,245
2019-03-23T09:13:50.278Z,245
2019-03-23T09:14:45.050Z,245
2019-03-23T09:15:44.826Z,245
2019-03-23T09:16:45.299Z,245
2019-03-23T09:17:45.300Z,245
2019-03-23T09:18:45.050Z,245
2019-03-23T09:19:45.278Z,245
2019-03-23T09:20:45.278Z,245
2019-03-23T09:21:45.535Z,245
2019-03-23T09:22:45.544Z,240
2019-03-23T09:23:45.947Z,240
2019-03-23T09:24:45.303Z,240
2019-03-23T09:25:45.743Z,240
2019-03-23T09:26:45.036Z,240
2019-03-23T09:27:45.031Z,240
2019-03-23T09:28:45.034Z,240
2019-03-23T09:29:44.777Z,240
2019-03-23T09:30:45.310Z,240
2019-03-23T09:31:45.256Z,240
2019-03-23T09:32:45.533Z,240
2019-03-23T09:33:44.517Z,240
2019-03-23T09:34:45.054Z,235
2019-03-23T09:35:48.366Z,235
2019-03-23T09:36:46.274Z,235
2019-03-23T09:37:47.870Z,235
2019-03-23T09:38:45.003Z,235
2019-03-23T09:39:44.993Z,235
2019-03-23T09:40:45.576Z,235
2019-03-23T09:41:45.487Z,235
2019-03-23T09:42:45.276Z,235
2019-03-23T09:43:44.983Z,235
2019-03-23T09:44:44.736Z,235
2019-03-23T09:45:45.017Z,235
2019-03-23T09:46:45.217Z,235
2019-03-23T09:47:45.216Z,235
2019-03-23T09:48:44.726Z,235
2019-03-23T09:49:45.493Z,235
2019-03-23T09:50:44.743Z,235
2019-03-23T09:51:45.231Z,235
2019-03-23T09:52:45.238Z,235
2019-03-23T09:53:45.492Z,235
2019-03-23T09:54:44.719Z,235
2019-03-23T09:55:44.734Z,230
2019-03-23T09:56:45.218Z,230
2019-03-23T09:57:45.281Z,230
2019-03-23T09:58:44.955Z,230
2019-03-23T09:59:44.988Z,230
2019-03-23T10:00:45.210Z,230
2019-03-23T10:01:44.955Z,230
2019-03-23T10:02:44.970Z,230
2019-03-23T10:03:47.661Z,230
2019-03-23T10:04:44.951Z,230
2019-03-23T10:05:45.200Z,230
2019-03-23T10:06:44.717Z,230
2019-03-23T10:07:44.933Z,230
2019-03-23T10:08:46.405Z,230
2019-03-23T10:09:44.942Z,230
2019-03-23T10:10:45.219Z,230
2019-03-23T10:11:45.452Z,225
2019-03-23T10:12:45.472Z,225
2019-03-23T10:13:44.942Z,225
2019-03-23T10:14:45.223Z,225
2019-03-23T10:15:45.468Z,225
2019-03-23T10:16:44.744Z,225
2019-03-23T10:17:44.690Z,225
2019-03-23T10:18:44.461Z,225
2019-03-23T10:19:44.936Z,225
2019-03-23T10:20:44.943Z,225
2019-03-23T10:21:44.955Z,225
2019-03-23T10:22:44.687Z,225
2019-03-23T10:23:44.687Z,225
2019-03-23T10:24:44.940Z,225
2019-03-23T10:25:44.709Z,225
2019-03-23T10:26:44.455Z,225
2019-03-23T10:27:44.972Z,220
2019-03-23T10:28:45.468Z,220
2019-03-23T10:29:45.436Z,220
2019-03-23T10:30:45.455Z,220
2019-03-23T10:31:45.202Z,220
2019-03-23T10:32:45.203Z,220
2019-03-23T10:33:45.462Z,220
2019-03-23T10:34:45.208Z,220
2019-03-23T10:35:44.720Z,220
2019-03-23T10:36:45.206Z,220
2019-03-23T10:37:44.948Z,220
2019-03-23T10:38:45.185Z,220
2019-03-23T10:39:45.203Z,220
2019-03-23T10:40:47.712Z,225
2019-03-23T10:41:45.212Z,220
2019-03-23T10:42:47.820Z,220
2019-03-23T10:43:46.297Z,220
2019-03-23T10:44:44.999Z,220
2019-03-23T10:45:53.092Z,215
2019-03-23T10:46:45.217Z,220
2019-03-23T10:47:45.915Z,215
2019-03-23T10:48:45.196Z,215
2019-03-23T10:49:44.927Z,215
2019-03-23T10:50:44.695Z,215
2019-03-23T10:51:44.929Z,215
2019-03-23T10:52:45.185Z,215
2019-03-23T10:53:44.921Z,215
2019-03-23T10:54:45.416Z,215
2019-03-23T10:55:45.455Z,215
2019-03-23T10:56:45.446Z,215
2019-03-23T10:57:44.937Z,215
2019-03-23T10:58:45.192Z,215
2019-03-23T10:59:44.417Z,215
2019-03-23T11:00:45.178Z,215
2019-03-23T11:01:45.215Z,210
2019-03-23T11:02:44.919Z,215
2019-03-23T11:03:45.226Z,215
2019-03-23T11:04:45.162Z,215
2019-03-23T11:05:45.224Z,215
2019-03-23T11:06:45.439Z,220
2019-03-23T11:07:44.670Z,215
2019-03-23T11:08:44.434Z,215
2019-03-23T11:09:44.705Z,215
2019-03-23T11:10:50.800Z,215
2019-03-23T11:11:45.433Z,215
2019-03-23T11:12:46.480Z,215
2019-03-23T11:13:44.708Z,215
2019-03-23T11:14:45.167Z,215
2019-03-23T11:15:45.170Z,215
2019-03-23T11:16:44.941Z,215
2019-03-23T11:17:45.414Z,210
2019-03-23T11:18:47.086Z,210
2019-03-23T11:19:44.992Z,210
2019-03-23T11:20:44.930Z,210
2019-03-23T11:21:44.926Z,210
2019-03-23T11:22:45.431Z,210
2019-03-23T11:23:45.600Z,210
2019-03-23T11:24:45.420Z,210
2019-03-23T11:25:45.417Z,210
2019-03-23T11:26:44.674Z,210
2019-03-23T11:27:45.171Z,210
2019-03-23T11:28:45.178Z,205
2019-03-23T11:29:44.432Z,205
2019-03-23T11:30:44.672Z,205
2019-03-23T11:31:44.910Z,205
2019-03-23T11:32:45.428Z,205
2019-03-23T11:33:45.234Z,205
2019-03-23T11:34:45.180Z,205
2019-03-23T11:35:45.430Z,210
2019-03-23T11:36:45.492Z,205
2019-03-23T11:37:46.347Z,205
2019-03-23T11:38:44.659Z,205
2019-03-23T11:39:44.684Z,205
2019-03-23T11:40:56.216Z,205
2019-03-23T11:41:44.662Z,205
2019-03-23T11:42:56.015Z,205
2019-03-23T11:43:44.923Z,205
2019-03-23T11:44:45.633Z,205
2019-03-23T11:45:45.179Z,205
2019-03-23T11:46:44.660Z,205
2019-03-23T11:47:45.407Z,205
2019-03-23T11:48:45.412Z,205
2019-03-23T11:49:44.912Z,205
2019-03-23T11:50:45.179Z,205
2019-03-23T11:51:44.413Z,205
2019-03-23T11:52:47.060Z,205
2019-03-23T11:53:44.707Z,205
2019-03-23T11:54:44.675Z,200
2019-03-23T11:55:45.156Z,200
2019-03-23T11:56:45.259Z,200
2019-03-23T11:57:44.666Z,200
2019-03-23T11:58:44.944Z,200
2019-03-23T11:59:44.962Z,200
2019-03-23T12:00:45.446Z,200
2019-03-23T12:01:54.103Z,200
2019-03-23T12:02:44.952Z,200
2019-03-23T12:03:45.179Z,200
2019-03-23T12:04:44.450Z,200
2019-03-23T12:05:45.189Z,200
2019-03-23T12:06:44.909Z,200
2019-03-23T12:07:44.938Z,200
2019-03-23T12:08:45.417Z,200
2019-03-23T12:09:45.192Z,200
2019-03-23T12:10:45.152Z,200
2019-03-23T12:11:45.401Z,200
2019-03-23T12:12:44.898Z,200
2019-03-23T12:13:44.905Z,165
2019-03-23T12:14:45.405Z,165
2019-03-23T12:15:44.994Z,165
2019-03-23T12:16:44.915Z,200
2019-03-23T12:17:44.909Z,195
2019-03-23T12:18:44.683Z,195
2019-03-23T12:19:45.192Z,195
2019-03-23T12:20:45.192Z,195
2019-03-23T12:21:45.395Z,195
2019-03-23T12:22:45.172Z,195
2019-03-23T12:23:44.897Z,195
2019-03-23T12:24:44.669Z,195
2019-03-23T12:25:45.193Z,195
2019-03-23T12:26:45.157Z,195
2019-03-23T12:27:45.202Z,195
2019-03-23T12:28:44.919Z,195
2019-03-23T12:29:45.138Z,195
2019-03-23T12:30:45.388Z,195
2019-03-23T12:31:44.931Z,195
2019-03-23T12:32:44.667Z,195
2019-03-23T12:33:44.920Z,195
2019-03-23T12:34:45.213Z,195
2019-03-23T12:35:44.903Z,195
2019-03-23T12:36:44.914Z,195
2019-03-23T12:37:44.931Z,195
2019-03-23T12:38:44.680Z,195
2019-03-23T12:39:45.741Z,195
2019-03-23T12:40:45.887Z,195
2019-03-23T12:41:44.675Z,195
2019-03-23T12:42:44.913Z,190
2019-03-23T12:43:44.670Z,190
2019-03-23T12:44:44.642Z,190
2019-03-23T12:45:45.588Z,190
2019-03-23T12:46:55.032Z,190
2019-03-23T12:47:44.941Z,190
2019-03-23T12:48:45.430Z,190
2019-03-23T12:49:44.906Z,190
2019-03-23T12:50:45.486Z,190
2019-03-23T12:51:45.390Z,190
2019-03-23T12:52:45.151Z,190
2019-03-23T12:53:44.659Z,190
2019-03-23T12:54:45.430Z,190
2019-03-23T12:55:44.919Z,190
2019-03-23T12:56:44.910Z,190
2019-03-23T12:57:45.152Z,185
2019-03-23T12:58:44.908Z,185
2019-03-23T12:59:45.160Z,185
2019-03-23T13:00:45.182Z,185
2019-03-23T13:01:44.909Z,185
2019-03-23T13:02:44.933Z,185
2019-03-23T13:03:44.906Z,185
2019-03-23T13:04:44.912Z,185
2019-03-23T13:05:44.906Z,185
2019-03-23T13:06:45.409Z,185
2019-03-23T13:07:45.160Z,185
2019-03-23T13:08:45.379Z,185
2019-03-23T13:09:46.215Z,180
2019-03-23T13:10:44.948Z,185
2019-03-23T13:11:45.850Z,180
2019-03-23T13:12:44.900Z,180
2019-03-23T13:13:44.928Z,180
2019-03-23T13:14:45.165Z,180
2019-03-23T13:15:45.165Z,180
2019-03-23T13:16:45.143Z,180
2019-03-23T13:17:45.418Z,180
2019-03-23T13:18:44.924Z,180
2019-03-23T13:19:44.901Z,180
2019-03-23T13:20:44.948Z,180
2019-03-23T13:21:45.422Z,180
2019-03-23T13:22:45.184Z,180
2019-03-23T13:23:44.915Z,180
2019-03-23T13:24:45.149Z,180
2019-03-23T13:25:44.668Z,175
2019-03-23T13:26:45.161Z,175
2019-03-23T13:27:46.766Z,175
2019-03-23T13:28:44.911Z,175
2019-03-23T13:29:44.914Z,175
2019-03-23T13:30:44.918Z,175
2019-03-23T13:31:45.162Z,175
2019-03-23T13:32:44.654Z,175
2019-03-23T13:33:44.910Z,175
2019-03-23T13:34:45.410Z,175
2019-03-23T13:35:45.185Z,175
2019-03-23T13:36:45.397Z,175
2019-03-23T13:37:44.907Z,175
2019-03-23T13:38:44.672Z,175
2019-03-23T13:39:45.431Z,175
2019-03-23T13:40:45.151Z,175
2019-03-23T13:41:53.961Z,175
2019-03-23T13:42:45.441Z,175
2019-03-23T13:43:45.191Z,175
2019-03-23T13:44:45.201Z,175
2019-03-23T13:45:52.165Z,175
2019-03-23T13:46:45.158Z,175
2019-03-23T13:47:44.672Z,175
2019-03-23T13:48:45.398Z,175
2019-03-23T13:49:45.154Z,175
2019-03-23T13:50:45.397Z,175
2019-03-23T13:51:44.901Z,175
2019-03-23T13:52:44.934Z,175
2019-03-23T13:53:47.247Z,170
2019-03-23T13:54:45.974Z,170
2019-03-23T13:55:45.217Z,170
2019-03-23T13:56:45.407Z,170
2019-03-23T13:57:45.176Z,170
2019-03-23T13:58:45.396Z,170
2019-03-23T13:59:44.932Z,170
2019-03-23T14:00:44.917Z,170
2019-03-23T14:01:44.933Z,170
2019-03-23T14:02:45.191Z,170
2019-03-23T14:03:44.919Z,170
2019-03-23T14:04:45.435Z,170
2019-03-23T14:05:45.204Z,170
2019-03-23T14:06:45.402Z,170
2019-03-23T14:07:45.164Z,170
2019-03-23T14:08:45.151Z,170
2019-03-23T14:09:45.036Z,170
2019-03-23T14:10:45.171Z,170